Portada
METAR-TAF:

METAR-TAF

Aeroports :

Lakenheath, Anglaterra

latitud: 52-25N, longitud: 000-34E, altitud: 10 m

Observació

L'informe es va fer fa 1 hora i 10 minuts, a les 12:56 UTC
Vent 5 kt del Oest/Sud-Oest
Temperatura 25°C
Humitat 41%
Pressió 1017 hPa
Visibilitat 10 km o més
Cel clar

METAR: EGUL 161256Z AUTO 25005KT 9999 CLR 25/11 A3004 RMK AO2 SLP176 T02450111 $

Hora: 15:06 (14:06 UTC)

Pronòstic

L'informe es va fer fa 52 minuts, a les 13:14 UTC
Pronòstic vàlid del 16 a les 13 UTC al 17 a les 19 UTC
Vent 6 kt amb direcció variable
Visibilitat 10 km o més
Núvols disperses a una alçada de 3000 ft

TAF: EGUL 161314Z 1613/1719 VRB06KT 9999 SCT030 QNH2996INS TX27/1715Z TN09/1705Z

Observacions i pronòstics meteorològics de més de 4000 aeroports (METAR i TAF).

Les estacions disponibles són els punts grocs i vermells al mapa.

Posi el ratolí al punt desitjat per veure el nom de l'estació.

Feu clic per veure les observacions i els pronòstics meteorològics.

Per canviar el mapa: feu clic els botons verds amb una creu de color negre per apropar; al botó verd amb un guió per allunyar la imatge; o en les fletxes verdes per a mapes adjacents.


METAR-TAF: